createdAt,value
2018-08-04T00:01:17.474Z,52.90
2018-08-04T00:03:45.159Z,53.00
2018-08-04T00:06:12.532Z,53.20
2018-08-04T00:08:39.864Z,53.40
2018-08-04T00:11:07.610Z,53.50
2018-08-04T00:13:35.272Z,53.80
2018-08-04T00:16:04.931Z,53.90
2018-08-04T00:18:33.062Z,54.10
2018-08-04T00:21:00.491Z,54.10
2018-08-04T00:23:27.932Z,54.10
2018-08-04T00:25:55.281Z,54.20
2018-08-04T00:28:22.825Z,54.40
2018-08-04T00:30:50.508Z,54.30
2018-08-04T00:33:17.944Z,54.70
2018-08-04T00:35:45.369Z,55.10
2018-08-04T00:38:13.016Z,55.00
2018-08-04T00:40:40.586Z,55.10
2018-08-04T00:45:35.292Z,55.40
2018-08-04T00:48:03.516Z,55.50
2018-08-04T00:50:30.866Z,55.50
2018-08-04T00:52:58.364Z,55.60
2018-08-04T00:55:26.348Z,56.10
2018-08-04T00:57:54.666Z,56.20
2018-08-04T01:00:22.522Z,56.60
2018-08-04T01:02:50.417Z,57.00
2018-08-04T01:05:17.876Z,57.20
2018-08-04T01:07:45.218Z,57.30
2018-08-04T01:10:12.732Z,57.30
2018-08-04T01:12:40.157Z,57.20
2018-08-04T01:15:07.807Z,56.90
2018-08-04T01:17:35.122Z,57.20
2018-08-04T01:20:03.706Z,57.70
2018-08-04T01:22:31.646Z,58.20
2018-08-04T01:24:58.831Z,58.50
2018-08-04T01:27:26.104Z,58.60
2018-08-04T01:32:21.077Z,59.10
2018-08-04T01:51:32.572Z,58.60
2018-08-04T01:53:59.746Z,58.80
2018-08-04T01:56:27.690Z,59.20
2018-08-04T01:59:01.539Z,59.10
2018-08-04T02:01:28.786Z,58.70
2018-08-04T02:03:56.054Z,58.40
2018-08-04T02:06:23.382Z,58.40
2018-08-04T02:08:50.572Z,58.80
2018-08-04T02:11:17.872Z,59.30
2018-08-04T02:13:45.467Z,59.20
2018-08-04T02:16:12.784Z,59.00
2018-08-04T02:18:40.135Z,59.00
2018-08-04T02:21:07.552Z,58.90
2018-08-04T02:23:34.885Z,59.20
2018-08-04T02:26:02.446Z,59.40
2018-08-04T02:28:29.657Z,58.90
2018-08-04T02:30:56.921Z,59.30
2018-08-04T02:33:24.231Z,59.40
2018-08-04T02:35:51.588Z,59.20
2018-08-04T02:38:18.836Z,59.30
2018-08-04T02:40:46.018Z,59.50
2018-08-04T02:43:13.408Z,59.80
2018-08-04T02:45:40.572Z,59.90
2018-08-04T02:48:08.297Z,60.30
2018-08-04T02:50:35.957Z,61.10
2018-08-04T02:53:03.184Z,60.90
2018-08-04T02:55:30.440Z,61.30
2018-08-04T02:57:57.696Z,61.40
2018-08-04T03:00:25.526Z,61.20
2018-08-04T03:02:52.985Z,62.00
2018-08-04T03:05:20.303Z,62.80
2018-08-04T03:07:47.504Z,63.30
2018-08-04T03:10:14.814Z,63.60
2018-08-04T03:12:42.136Z,64.20
2018-08-04T03:15:10.096Z,64.90
2018-08-04T03:17:37.419Z,65.00
2018-08-04T03:20:05.580Z,64.30
2018-08-04T03:22:33.528Z,64.00
2018-08-04T03:25:00.727Z,63.80
2018-08-04T03:27:29.063Z,63.90
2018-08-04T03:34:51.080Z,64.00
2018-08-04T03:37:18.620Z,63.80
2018-08-04T03:39:45.927Z,63.70
2018-08-04T03:42:13.124Z,63.90
2018-08-04T03:44:41.140Z,63.50
2018-08-04T03:47:10.609Z,64.00
2018-08-04T03:49:38.479Z,64.10
2018-08-04T03:52:05.773Z,64.50
2018-08-04T03:54:33.137Z,63.70
2018-08-04T03:57:00.384Z,63.40
2018-08-04T03:59:27.534Z,62.70
2018-08-04T04:01:54.720Z,63.00
2018-08-04T04:04:21.929Z,63.70
2018-08-04T04:06:49.189Z,63.60
2018-08-04T04:09:17.195Z,63.70
2018-08-04T04:11:44.406Z,63.90
2018-08-04T04:14:11.765Z,64.20
2018-08-04T04:16:39.226Z,65.00
2018-08-04T04:19:06.749Z,64.80
2018-08-04T04:21:34.163Z,64.60
2018-08-04T04:24:01.444Z,64.50
2018-08-04T04:26:28.666Z,64.00
2018-08-04T04:28:56.066Z,63.80
2018-08-04T04:31:23.310Z,63.80
2018-08-04T04:33:50.681Z,63.80
2018-08-04T04:36:18.022Z,64.30
2018-08-04T04:38:45.336Z,64.60
2018-08-04T04:41:12.532Z,64.70
2018-08-04T04:43:39.733Z,64.80
2018-08-04T04:46:07.008Z,66.00
2018-08-04T04:48:34.381Z,64.90
2018-08-04T04:51:01.567Z,65.70
2018-08-04T04:53:28.834Z,65.30
2018-08-04T04:55:56.925Z,65.60
2018-08-04T04:58:24.205Z,65.00
2018-08-04T05:00:51.561Z,65.30
2018-08-04T05:03:19.068Z,65.40
2018-08-04T05:05:46.416Z,65.70
2018-08-04T05:08:13.657Z,66.20
2018-08-04T05:10:40.902Z,65.90
2018-08-04T05:13:08.621Z,66.00
2018-08-04T05:15:35.979Z,65.70
2018-08-04T05:18:03.293Z,65.90
2018-08-04T05:22:58.066Z,65.80
2018-08-04T05:25:25.440Z,66.40
2018-08-04T05:27:52.850Z,66.40
2018-08-04T05:30:20.020Z,66.50
2018-08-04T05:32:47.232Z,66.70
2018-08-04T05:35:14.483Z,66.80
2018-08-04T05:37:41.785Z,67.40
2018-08-04T05:40:09.017Z,67.50
2018-08-04T05:42:37.174Z,67.40
2018-08-04T05:45:05.649Z,67.60
2018-08-04T05:47:32.882Z,67.60
2018-08-04T05:50:00.417Z,67.50
2018-08-04T05:52:27.758Z,67.00
2018-08-04T05:54:55.054Z,67.20
2018-08-04T05:57:22.840Z,67.60
2018-08-04T05:59:50.385Z,67.60
2018-08-04T06:02:17.650Z,67.60
2018-08-04T06:04:44.906Z,67.60
2018-08-04T06:07:12.545Z,67.30
2018-08-04T06:09:39.763Z,67.10
2018-08-04T06:12:06.983Z,66.90
2018-08-04T06:14:34.239Z,67.00
2018-08-04T06:17:01.616Z,67.00
2018-08-04T06:19:28.899Z,67.70
2018-08-04T06:21:56.219Z,67.90
2018-08-04T06:24:23.440Z,67.80
2018-08-04T06:26:50.672Z,67.40
2018-08-04T06:29:17.803Z,67.70
2018-08-04T06:31:45.711Z,67.00
2018-08-04T06:34:13.592Z,67.00
2018-08-04T06:36:40.937Z,67.10
2018-08-04T06:39:08.629Z,67.90
2018-08-04T06:41:36.572Z,68.00
2018-08-04T06:44:04.052Z,68.10
2018-08-04T06:46:31.340Z,68.10
2018-08-04T06:48:58.565Z,68.40
2018-08-04T06:51:25.724Z,68.20
2018-08-04T06:53:53.021Z,68.10
2018-08-04T06:56:20.272Z,68.00
2018-08-04T06:58:48.089Z,67.70
2018-08-04T07:01:15.538Z,67.50
2018-08-04T07:03:42.904Z,67.30
2018-08-04T07:06:10.308Z,66.80
2018-08-04T07:08:37.560Z,67.70
2018-08-04T07:11:04.973Z,66.50
2018-08-04T07:13:32.293Z,66.70
2018-08-04T07:15:59.886Z,67.20
2018-08-04T07:18:27.160Z,66.90
2018-08-04T07:20:54.381Z,66.10
2018-08-04T07:23:22.598Z,66.10
2018-08-04T07:25:50.152Z,65.80
2018-08-04T07:28:17.403Z,66.00
2018-08-04T07:30:45.046Z,65.80
2018-08-04T07:33:13.069Z,65.90
2018-08-04T07:35:40.534Z,66.10
2018-08-04T07:38:07.986Z,65.80
2018-08-04T07:40:35.404Z,66.00
2018-08-04T07:43:02.699Z,65.90
2018-08-04T07:45:30.218Z,65.90
2018-08-04T07:52:52.636Z,66.60
2018-08-04T07:55:20.601Z,66.60
2018-08-04T07:57:48.102Z,66.70
2018-08-04T08:00:16.754Z,66.60
2018-08-04T08:02:44.617Z,67.00
2018-08-04T08:05:11.999Z,67.20
2018-08-04T08:07:39.741Z,67.20
2018-08-04T08:10:07.063Z,67.20
2018-08-04T08:12:34.827Z,67.10
2018-08-04T08:15:03.184Z,66.80
2018-08-04T08:17:30.372Z,66.50
2018-08-04T08:19:58.344Z,66.60
2018-08-04T08:22:36.946Z,66.20
2018-08-04T08:25:04.461Z,66.40
2018-08-04T08:27:31.778Z,66.50
2018-08-04T08:29:59.127Z,66.80
2018-08-04T08:32:26.678Z,66.80
2018-08-04T08:34:54.243Z,66.00
2018-08-04T08:37:21.703Z,66.30
2018-08-04T08:39:49.055Z,66.40
2018-08-04T08:42:16.677Z,66.20
2018-08-04T08:44:43.944Z,66.20
2018-08-04T08:49:38.623Z,66.70
2018-08-04T08:52:06.099Z,67.10
2018-08-04T08:54:33.542Z,67.20
2018-08-04T08:57:00.930Z,67.20
2018-08-04T08:59:28.259Z,66.80
2018-08-04T09:01:55.975Z,66.50
2018-08-04T09:04:23.217Z,66.90
2018-08-04T09:06:50.414Z,66.20
2018-08-04T09:09:18.380Z,66.50
2018-08-04T09:11:45.669Z,67.20
2018-08-04T09:14:12.854Z,67.10
2018-08-04T09:16:40.077Z,67.00
2018-08-04T09:19:07.459Z,66.90
2018-08-04T09:21:34.676Z,66.80
2018-08-04T09:24:02.183Z,67.10
2018-08-04T09:26:29.366Z,66.20
2018-08-04T09:28:56.689Z,65.40
2018-08-04T09:31:24.021Z,64.70
2018-08-04T09:50:34.841Z,63.50
2018-08-04T09:53:02.197Z,63.70
2018-08-04T09:55:30.021Z,63.70
2018-08-04T09:57:57.298Z,63.20
2018-08-04T10:00:26.606Z,62.80
2018-08-04T10:02:54.256Z,63.20
2018-08-04T10:07:48.766Z,62.80
2018-08-04T10:10:16.135Z,62.60
2018-08-04T10:12:43.404Z,62.50
2018-08-04T10:15:11.207Z,62.40
2018-08-04T10:17:38.930Z,61.50
2018-08-04T10:20:07.687Z,60.90
2018-08-04T10:22:35.558Z,61.10
2018-08-04T10:25:02.989Z,60.50
2018-08-04T10:27:30.204Z,60.30
2018-08-04T10:29:58.185Z,60.30
2018-08-04T10:32:25.559Z,60.50
2018-08-04T10:34:52.853Z,60.30
2018-08-04T10:39:47.432Z,59.60
2018-08-04T10:42:14.752Z,59.40
2018-08-04T10:44:42.079Z,58.80
2018-08-04T10:47:09.432Z,58.40
2018-08-04T10:49:36.676Z,58.20
2018-08-04T10:52:05.143Z,58.70
2018-08-04T10:54:32.408Z,58.50
2018-08-04T10:56:59.718Z,59.00
2018-08-04T10:59:27.098Z,58.60
2018-08-04T11:01:54.605Z,58.40
2018-08-04T11:04:21.861Z,58.90
2018-08-04T11:06:49.138Z,58.80
2018-08-04T11:09:18.557Z,58.60
2018-08-04T11:11:46.372Z,57.80
2018-08-04T11:14:13.499Z,58.00
2018-08-04T11:16:40.733Z,57.10
2018-08-04T11:19:08.431Z,57.00
2018-08-04T11:21:35.719Z,55.20
2018-08-04T11:24:03.097Z,55.90
2018-08-04T11:26:31.024Z,56.00
2018-08-04T11:28:58.328Z,56.10
2018-08-04T11:31:25.759Z,56.40
2018-08-04T11:33:54.215Z,55.70
2018-08-04T11:36:22.863Z,57.00
2018-08-04T11:38:52.761Z,57.80
2018-08-04T11:41:20.665Z,56.80
2018-08-04T11:43:48.741Z,56.60
2018-08-04T11:46:17.424Z,55.90
2018-08-04T11:48:44.755Z,55.10
2018-08-04T11:51:13.433Z,55.50
2018-08-04T11:53:42.197Z,55.80
2018-08-04T11:56:11.538Z,57.10
2018-08-04T11:58:40.528Z,56.70
2018-08-04T12:01:09.954Z,56.60
2018-08-04T12:03:37.684Z,56.10
2018-08-04T12:06:07.925Z,55.90
2018-08-04T12:08:36.184Z,55.90
2018-08-04T12:11:04.721Z,55.80
2018-08-04T12:13:32.705Z,56.10
2018-08-04T12:18:35.170Z,57.20
2018-08-04T12:21:02.524Z,57.30
2018-08-04T12:23:29.834Z,57.60
2018-08-04T12:25:57.041Z,57.90
2018-08-04T12:28:25.269Z,57.70
2018-08-04T12:30:52.457Z,57.40
2018-08-04T12:33:19.711Z,56.90
2018-08-04T12:35:47.512Z,57.10
2018-08-04T12:38:14.721Z,56.70
2018-08-04T12:40:41.848Z,57.30
2018-08-04T12:43:09.274Z,56.40
2018-08-04T12:45:36.481Z,56.40
2018-08-04T12:48:03.679Z,56.20
2018-08-04T12:50:30.885Z,54.50
2018-08-04T12:52:58.005Z,54.00
2018-08-04T13:12:09.207Z,49.50
2018-08-04T13:14:36.682Z,49.00
2018-08-04T13:17:10.639Z,49.00
2018-08-04T13:19:37.874Z,49.50
2018-08-04T13:22:05.316Z,49.70
2018-08-04T13:24:32.475Z,49.80
2018-08-04T13:26:59.680Z,49.40
2018-08-04T13:29:26.902Z,49.20
2018-08-04T13:31:54.160Z,48.90
2018-08-04T13:34:21.418Z,48.50
2018-08-04T13:36:48.674Z,48.30
2018-08-04T13:39:16.028Z,48.60
2018-08-04T13:41:43.207Z,52.20
2018-08-04T13:44:10.662Z,53.40
2018-08-04T13:46:38.665Z,55.10
2018-08-04T13:49:05.996Z,60.10
2018-08-04T13:51:33.906Z,61.70
2018-08-04T13:54:01.101Z,69.60
2018-08-04T13:56:29.399Z,75.20
2018-08-04T13:58:57.681Z,76.00
2018-08-04T14:01:24.908Z,68.40
2018-08-04T14:03:52.122Z,76.80
2018-08-04T14:06:19.580Z,80.20
2018-08-04T14:08:46.967Z,84.50
2018-08-04T14:11:15.037Z,87.40
2018-08-04T14:13:42.465Z,87.40
2018-08-04T14:16:09.755Z,78.40
2018-08-04T14:18:38.520Z,67.10
2018-08-04T14:21:05.977Z,65.80
2018-08-04T14:23:33.483Z,63.20
2018-08-04T14:32:11.194Z,89.00
2018-08-04T14:34:38.382Z,84.80
2018-08-04T14:37:05.640Z,82.90
2018-08-04T14:39:32.879Z,82.00
2018-08-04T14:42:00.009Z,81.90
2018-08-04T14:44:27.203Z,79.30
2018-08-04T14:46:54.422Z,80.20
2018-08-04T14:49:21.812Z,78.70
2018-08-04T14:51:49.078Z,75.60
2018-08-04T14:54:16.707Z,75.70
2018-08-04T14:56:44.922Z,73.60
2018-08-04T14:59:12.115Z,72.20
2018-08-04T15:01:39.322Z,69.20
2018-08-04T15:04:06.523Z,67.70
2018-08-04T15:06:33.771Z,66.70
2018-08-04T15:09:01.325Z,66.60
2018-08-04T15:11:28.436Z,64.50
2018-08-04T15:13:56.385Z,62.10
2018-08-04T15:16:23.615Z,66.30
2018-08-04T15:18:51.228Z,65.30
2018-08-04T15:21:18.411Z,63.20
2018-08-04T15:23:45.586Z,59.80
2018-08-04T15:26:12.746Z,59.90
2018-08-04T15:28:39.919Z,58.40
2018-08-04T15:31:07.100Z,57.00
2018-08-04T15:33:34.283Z,55.70
2018-08-04T15:36:01.393Z,54.00
2018-08-04T15:38:28.555Z,54.90
2018-08-04T15:40:57.362Z,55.50
2018-08-04T15:43:24.533Z,57.70
2018-08-04T15:45:51.719Z,56.00
2018-08-04T15:48:18.956Z,56.30
2018-08-04T15:50:46.502Z,54.00
2018-08-04T15:53:13.672Z,52.90
2018-08-04T15:55:40.787Z,54.00
2018-08-04T15:58:07.883Z,53.30
2018-08-04T16:00:35.004Z,53.30
2018-08-04T16:03:02.469Z,53.90
2018-08-04T16:05:29.656Z,51.60
2018-08-04T16:07:56.804Z,53.30
2018-08-04T16:10:23.953Z,51.80
2018-08-04T16:12:51.069Z,52.30
2018-08-04T16:15:18.920Z,53.60
2018-08-04T16:17:46.312Z,53.70
2018-08-04T16:20:14.964Z,51.40
2018-08-04T16:22:42.316Z,51.40
2018-08-04T16:25:09.469Z,52.50
2018-08-04T16:27:36.641Z,50.10
2018-08-04T16:32:31.761Z,49.10
2018-08-04T16:34:58.944Z,48.50
2018-08-04T16:37:26.141Z,49.00
2018-08-04T16:39:53.304Z,48.50
2018-08-04T16:42:20.518Z,49.20
2018-08-04T16:44:47.666Z,49.70
2018-08-04T16:47:14.926Z,49.90
2018-08-04T16:49:42.363Z,50.00
2018-08-04T16:52:09.548Z,49.40
2018-08-04T16:54:36.697Z,50.10
2018-08-04T16:57:03.930Z,49.00
2018-08-04T16:59:31.327Z,49.40
2018-08-04T17:01:58.809Z,50.00
2018-08-04T17:04:25.975Z,51.00
2018-08-04T17:06:53.192Z,50.40
2018-08-04T17:09:20.866Z,50.50
2018-08-04T17:11:47.999Z,51.00
2018-08-04T17:14:15.222Z,50.30
2018-08-04T17:16:42.800Z,50.60
2018-08-04T17:19:09.959Z,50.50
2018-08-04T17:21:37.129Z,50.20
2018-08-04T17:24:04.574Z,50.70
2018-08-04T17:26:31.720Z,50.60
2018-08-04T17:28:58.881Z,50.50
2018-08-04T17:31:26.666Z,50.20
2018-08-04T17:33:53.783Z,50.00
2018-08-04T17:36:20.956Z,49.70
2018-08-04T17:38:48.099Z,49.80
2018-08-04T17:41:15.872Z,50.10
2018-08-04T17:43:43.027Z,50.30
2018-08-04T17:46:10.217Z,51.10
2018-08-04T17:48:37.473Z,50.70
2018-08-04T17:51:04.650Z,50.70
2018-08-04T17:53:32.006Z,51.20
2018-08-04T17:55:59.221Z,50.50
2018-08-04T17:58:26.421Z,50.80
2018-08-04T18:00:53.576Z,51.10
2018-08-04T18:03:20.786Z,51.10
2018-08-04T18:05:47.986Z,50.70
2018-08-04T18:08:15.116Z,50.40
2018-08-04T18:10:42.386Z,51.00
2018-08-04T18:15:36.867Z,50.80
2018-08-04T18:18:04.231Z,50.90
2018-08-04T18:20:31.516Z,51.00
2018-08-04T18:22:58.709Z,50.90
2018-08-04T18:25:26.144Z,50.80
2018-08-04T18:27:53.331Z,51.40
2018-08-04T18:30:21.120Z,49.20
2018-08-04T18:32:48.706Z,46.90
2018-08-04T18:35:15.923Z,47.20
2018-08-04T18:37:44.181Z,47.60
2018-08-04T18:40:11.376Z,47.40
2018-08-04T18:42:38.668Z,47.40
2018-08-04T18:45:06.120Z,47.50
2018-08-04T18:47:33.582Z,47.60
2018-08-04T18:50:00.804Z,47.90
2018-08-04T18:52:28.698Z,48.60
2018-08-04T18:54:55.915Z,48.90
2018-08-04T18:57:23.160Z,49.80
2018-08-04T18:59:50.487Z,50.40
2018-08-04T19:02:18.140Z,51.00
2018-08-04T19:04:45.760Z,52.40
2018-08-04T19:07:13.069Z,52.60
2018-08-04T19:09:40.379Z,53.10
2018-08-04T19:12:08.556Z,53.40
2018-08-04T19:14:35.894Z,53.70
2018-08-04T19:17:03.248Z,54.20
2018-08-04T19:19:30.563Z,54.20
2018-08-04T19:21:57.899Z,54.30
2018-08-04T19:24:25.215Z,54.60
2018-08-04T19:26:52.459Z,54.50
2018-08-04T19:29:19.767Z,54.50
2018-08-04T19:31:47.142Z,55.00
2018-08-04T19:34:14.441Z,55.10
2018-08-04T19:36:42.339Z,55.20
2018-08-04T19:39:10.505Z,55.20
2018-08-04T19:41:37.986Z,55.90
2018-08-04T19:44:07.917Z,56.30
2018-08-04T19:46:35.799Z,56.20
2018-08-04T19:49:03.192Z,56.30
2018-08-04T19:51:30.973Z,56.20
2018-08-04T19:53:59.096Z,56.10
2018-08-04T19:56:26.927Z,56.00
2018-08-04T19:58:55.307Z,56.60
2018-08-04T20:01:22.876Z,56.00
2018-08-04T20:03:50.359Z,56.30
2018-08-04T20:06:19.003Z,56.40
2018-08-04T20:11:13.781Z,56.10
2018-08-04T20:13:42.163Z,55.80
2018-08-04T20:16:09.728Z,55.70
2018-08-04T20:18:37.881Z,55.00
2018-08-04T20:21:07.732Z,55.20
2018-08-04T20:23:36.826Z,55.00
2018-08-04T20:26:05.381Z,55.00
2018-08-04T20:31:00.244Z,55.20
2018-08-04T20:33:27.718Z,54.70
2018-08-04T20:35:55.031Z,54.60
2018-08-04T20:38:22.593Z,55.20
2018-08-04T20:40:52.007Z,54.90
2018-08-04T20:43:19.229Z,54.90
2018-08-04T20:45:46.727Z,54.80
2018-08-04T20:48:13.989Z,55.10
2018-08-04T20:50:41.318Z,55.10
2018-08-04T20:53:08.578Z,55.10
2018-08-04T20:55:35.925Z,55.20
2018-08-04T20:58:03.169Z,55.10
2018-08-04T21:00:38.881Z,55.20
2018-08-04T21:03:07.715Z,55.30
2018-08-04T21:05:35.287Z,55.20
2018-08-04T21:08:02.769Z,55.60
2018-08-04T21:10:30.101Z,55.60
2018-08-04T21:12:58.076Z,55.80
2018-08-04T21:15:25.515Z,56.40
2018-08-04T21:17:53.604Z,56.00
2018-08-04T21:20:20.887Z,55.80
2018-08-04T21:22:48.207Z,56.30
2018-08-04T21:25:15.519Z,56.00
2018-08-04T21:27:43.216Z,56.40
2018-08-04T21:30:11.187Z,56.20
2018-08-04T21:32:38.577Z,55.90
2018-08-04T21:35:05.931Z,56.80
2018-08-04T21:37:33.786Z,56.40
2018-08-04T21:40:01.128Z,56.10
2018-08-04T21:42:28.381Z,56.20
2018-08-04T21:44:55.737Z,56.40
2018-08-04T21:47:23.265Z,57.00
2018-08-04T21:49:50.569Z,57.00
2018-08-04T21:52:18.241Z,57.10
2018-08-04T21:54:46.737Z,57.00
2018-08-04T21:57:14.017Z,57.10
2018-08-04T21:59:42.512Z,57.60
2018-08-04T22:02:09.822Z,57.60
2018-08-04T22:04:37.001Z,57.70
2018-08-04T22:07:41.627Z,57.90
2018-08-04T22:10:09.421Z,57.70
2018-08-04T22:12:36.961Z,57.90
2018-08-04T22:15:05.186Z,57.90
2018-08-04T22:17:32.687Z,57.90
2018-08-04T22:20:00.285Z,58.10
2018-08-04T22:22:27.528Z,58.20
2018-08-04T22:24:56.030Z,58.40
2018-08-04T22:27:23.439Z,58.50
2018-08-04T22:29:50.895Z,58.80
2018-08-04T22:32:18.942Z,59.30
2018-08-04T22:34:46.224Z,59.30
2018-08-04T22:37:13.699Z,59.00
2018-08-04T22:39:41.143Z,59.90
2018-08-04T22:42:08.567Z,60.30
2018-08-04T22:44:46.313Z,60.10
2018-08-04T22:47:13.593Z,61.00
2018-08-04T22:49:40.928Z,60.90
2018-08-04T22:52:09.025Z,60.60
2018-08-04T22:54:36.298Z,60.60
2018-08-04T22:57:04.012Z,61.30
2018-08-04T22:59:31.778Z,61.10
2018-08-04T23:01:59.100Z,62.40
2018-08-04T23:04:26.324Z,61.50
2018-08-04T23:06:53.880Z,62.00
2018-08-04T23:09:21.565Z,63.10
2018-08-04T23:11:48.762Z,63.20
2018-08-04T23:14:16.089Z,63.00
2018-08-04T23:16:43.368Z,63.30
2018-08-04T23:19:10.762Z,62.90
2018-08-04T23:21:38.947Z,63.30
2018-08-04T23:24:06.288Z,63.40
2018-08-04T23:26:34.189Z,64.00
2018-08-04T23:29:01.523Z,63.30
2018-08-04T23:31:28.659Z,64.00
2018-08-04T23:33:55.778Z,65.80
2018-08-04T23:36:22.900Z,64.70
2018-08-04T23:38:50.057Z,65.50
2018-08-04T23:41:17.188Z,64.60
2018-08-04T23:43:44.347Z,64.20
2018-08-04T23:46:11.456Z,64.20
2018-08-04T23:48:38.572Z,63.70
2018-08-04T23:51:05.869Z,63.80
2018-08-04T23:53:33.003Z,64.10
2018-08-04T23:56:00.184Z,64.50
2018-08-04T23:58:27.325Z,64.90
